Time;durP1;ratioP1;P1;durP2;ratioP2;P2;SDS_P1;SDS_P2;PMS_P1;PMS_P2;Temp;Humidity;BMP_temperature;BMP_pressure;BME280_temperature;BME280_humidity;BME280_pressure;Samples;Min_cycle;Max_cycle;Signal;HPM_P1;HPM_P2
2022/05/04 00:01:23;;;;;;;2.80;2.30;;;20.60;54.80;;;;;;4911492;28;88268;-78
2022/05/04 00:03:49;;;;;;;4.45;2.70;;;20.60;54.70;;;;;;4911479;28;87613;-80
2022/05/04 00:06:14;;;;;;;5.82;2.70;;;20.60;54.80;;;;;;4911442;28;87361;-77
2022/05/04 00:08:40;;;;;;;3.35;2.58;;;20.70;54.90;;;;;;4909211;28;91571;-79
2022/05/04 00:11:06;;;;;;;3.80;2.50;;;20.60;54.90;;;;;;4910621;28;87508;-79
2022/05/04 00:13:33;;;;;;;3.10;2.58;;;20.60;54.90;;;;;;4909473;28;88091;-79
2022/05/04 00:16:02;;;;;;;3.47;2.83;;;20.60;54.80;;;;;;4912123;28;87118;-86
2022/05/04 00:18:29;;;;;;;3.00;2.25;;;20.60;54.90;;;;;;4911496;28;88257;-86
2022/05/04 00:20:55;;;;;;;2.65;2.30;;;20.60;54.90;;;;;;4909498;28;89959;-85
2022/05/04 00:23:24;;;;;;;2.60;2.40;;;20.60;54.90;;;;;;4911559;28;88417;-84
2022/05/04 00:25:52;;;;;;;3.70;2.58;;;20.60;54.90;;;;;;4911852;28;87558;-83
2022/05/04 00:28:18;;;;;;;2.92;2.10;;;20.70;54.90;;;;;;4911896;28;87590;-78
2022/05/04 00:30:44;;;;;;;3.55;2.47;;;20.60;54.90;;;;;;4911165;28;87477;-79
2022/05/04 00:33:10;;;;;;;2.90;2.60;;;20.60;55.00;;;;;;4912251;28;87627;-79
2022/05/04 00:35:36;;;;;;;4.38;2.75;;;20.60;54.90;;;;;;4912507;28;87194;-83
2022/05/04 00:38:02;;;;;;;3.85;2.60;;;20.60;54.90;;;;;;4911408;28;86997;-80
2022/05/04 00:40:28;;;;;;;4.50;2.60;;;20.60;54.90;;;;;;4912250;28;88280;-80
2022/05/04 00:42:53;;;;;;;3.50;2.67;;;20.60;54.90;;;;;;4912557;28;87661;-79
2022/05/04 00:45:19;;;;;;;2.67;2.30;;;20.60;55.00;;;;;;4910903;28;87297;-79
2022/05/04 00:47:45;;;;;;;3.45;2.75;;;20.60;55.00;;;;;;4908355;28;91365;-80
2022/05/04 00:50:12;;;;;;;3.65;2.92;;;20.60;54.90;;;;;;4911078;28;88395;-78
2022/05/04 00:52:41;;;;;;;2.75;2.30;;;20.60;54.80;;;;;;4911432;28;86912;-79
2022/05/04 00:55:09;;;;;;;3.55;2.60;;;20.60;54.70;;;;;;4911207;28;87760;-83
2022/05/04 01:00:28;;;;;;;3.72;2.50;;;20.60;54.70;;;;;;4914339;28;87316;-78
2022/05/04 01:02:54;;;;;;;3.08;2.22;;;20.60;54.80;;;;;;4914395;28;88009;-79
2022/05/04 01:05:20;;;;;;;3.55;2.58;;;20.60;54.70;;;;;;4914574;28;86686;-81
2022/05/04 01:07:47;;;;;;;3.00;2.30;;;20.60;54.60;;;;;;4914755;28;88997;-84
2022/05/04 01:10:14;;;;;;;3.83;2.67;;;20.60;54.80;;;;;;4913771;28;90382;-80
2022/05/04 01:12:51;;;;;;;3.58;2.35;;;20.60;54.70;;;;;;4913598;28;88029;-84
2022/05/04 01:15:18;;;;;;;3.15;2.42;;;20.60;54.60;;;;;;4912674;28;89505;-81
2022/05/04 01:17:45;;;;;;;2.78;2.47;;;20.60;54.70;;;;;;4915045;28;88053;-83
2022/05/04 01:20:11;;;;;;;4.38;3.20;;;20.60;54.80;;;;;;4915368;28;88349;-85
2022/05/04 01:22:37;;;;;;;2.47;2.28;;;20.60;54.80;;;;;;4914714;28;86981;-79
2022/05/04 01:25:04;;;;;;;3.40;2.70;;;20.60;54.90;;;;;;4914184;28;87802;-83
2022/05/04 01:27:29;;;;;;;2.78;2.58;;;20.60;54.80;;;;;;4913836;28;88098;-83
2022/05/04 01:29:57;;;;;;;4.07;3.25;;;20.60;54.90;;;;;;4913134;28;87296;-79
2022/05/04 01:32:24;;;;;;;3.05;2.40;;;20.60;54.90;;;;;;4914362;28;87098;-81
2022/05/04 01:34:49;;;;;;;3.95;2.80;;;20.50;54.80;;;;;;4928332;28;89164;-79
2022/05/04 01:37:15;;;;;;;3.78;2.45;;;20.50;54.70;;;;;;4912542;28;88952;-82
2022/05/04 01:39:41;;;;;;;3.88;2.50;;;20.50;54.90;;;;;;4913644;28;88735;-78
2022/05/04 01:42:13;;;;;;;3.47;2.67;;;20.50;54.70;;;;;;4913753;28;87948;-80
2022/05/04 01:44:40;;;;;;;2.67;2.10;;;20.50;54.60;;;;;;4914028;28;87532;-79
2022/05/04 01:47:07;;;;;;;4.75;3.17;;;20.60;54.80;;;;;;4914192;28;87723;-80
2022/05/04 01:49:33;;;;;;;3.83;2.80;;;20.50;54.70;;;;;;4914133;28;87943;-82
2022/05/04 01:51:59;;;;;;;4.30;2.90;;;20.50;54.80;;;;;;4913860;28;87427;-84
2022/05/04 01:54:25;;;;;;;4.18;2.40;;;20.50;55.50;;;;;;4914360;28;86645;-85
2022/05/04 01:56:51;;;;;;;3.35;2.60;;;20.50;55.00;;;;;;4914036;28;87914;-80
2022/05/04 01:59:16;;;;;;;3.35;2.60;;;20.50;55.00;;;;;;4913687;28;88060;-79
2022/05/04 02:01:42;;;;;;;3.58;2.80;;;20.50;54.90;;;;;;4914110;28;89345;-81
2022/05/04 02:04:08;;;;;;;2.88;2.47;;;20.50;54.80;;;;;;4913742;28;86977;-86
2022/05/04 02:06:36;;;;;;;3.45;2.70;;;20.50;54.90;;;;;;4914182;28;87598;-85
2022/05/04 02:09:07;;;;;;;3.60;2.65;;;20.50;54.80;;;;;;4913869;28;87860;-81
2022/05/04 02:11:36;;;;;;;3.17;2.58;;;20.50;54.70;;;;;;4914868;28;87896;-80
2022/05/04 02:14:03;;;;;;;3.55;2.60;;;20.50;54.90;;;;;;4914346;28;87687;-79
2022/05/04 02:16:29;;;;;;;2.35;2.15;;;20.50;54.90;;;;;;4914131;28;88193;-79
2022/05/04 02:18:56;;;;;;;2.40;2.20;;;20.50;54.70;;;;;;4914546;28;88663;-83
2022/05/04 02:21:21;;;;;;;3.40;2.42;;;20.50;54.90;;;;;;4913227;28;87751;-82
2022/05/04 02:23:47;;;;;;;3.65;2.55;;;20.50;54.80;;;;;;4912558;28;87851;-79
2022/05/04 02:26:13;;;;;;;3.33;2.38;;;20.50;54.70;;;;;;4912592;28;88695;-82
2022/05/04 02:28:38;;;;;;;4.25;2.60;;;20.50;54.80;;;;;;4913882;28;87912;-82
2022/05/04 02:31:04;;;;;;;2.97;2.42;;;20.50;54.70;;;;;;4914025;28;88025;-80
2022/05/04 02:33:30;;;;;;;4.22;2.47;;;20.50;54.70;;;;;;4912373;28;89760;-81
2022/05/04 02:38:40;;;;;;;3.00;2.20;;;20.50;54.80;;;;;;4911831;28;87605;-80
2022/05/04 02:41:06;;;;;;;3.17;2.33;;;20.50;54.70;;;;;;4913126;28;87701;-77
2022/05/04 02:43:37;;;;;;;3.90;2.58;;;20.50;54.80;;;;;;4912597;28;86670;-83
2022/05/04 02:46:19;;;;;;;3.90;2.20;;;20.40;54.70;;;;;;4912746;28;87623;-79
2022/05/04 02:48:46;;;;;;;3.55;2.55;;;20.40;54.70;;;;;;4913166;28;87403;-83
2022/05/04 02:51:12;;;;;;;5.15;2.55;;;20.40;54.50;;;;;;4911114;28;88373;-79
2022/05/04 02:53:38;;;;;;;2.60;2.40;;;20.40;54.60;;;;;;4913407;28;87834;-86
2022/05/04 02:56:05;;;;;;;3.33;3.03;;;20.40;54.70;;;;;;4913842;28;89013;-83
2022/05/04 02:58:31;;;;;;;4.32;2.95;;;20.40;54.60;;;;;;4914133;28;86933;-85
2022/05/04 03:03:56;;;;;;;3.13;2.47;;;20.40;54.70;;;;;;4912146;28;88024;-83
2022/05/04 03:06:22;;;;;;;3.03;2.27;;;20.40;54.70;;;;;;4913329;28;87899;-82
2022/05/04 03:08:48;;;;;;;2.83;2.33;;;20.40;54.70;;;;;;4913634;28;87419;-85
2022/05/04 03:13:58;;;;;;;3.05;2.47;;;20.40;54.90;;;;;;4913354;28;88012;-85
2022/05/04 03:16:23;;;;;;;3.25;2.65;;;20.50;54.80;;;;;;4926415;28;91329;-82
2022/05/04 03:18:49;;;;;;;3.50;2.70;;;20.40;54.80;;;;;;4912740;28;88095;-84
2022/05/04 03:21:15;;;;;;;2.78;2.47;;;20.40;54.80;;;;;;4911402;28;88038;-79
2022/05/04 03:23:40;;;;;;;2.92;2.63;;;20.40;54.80;;;;;;4913583;28;88276;-79
2022/05/04 03:26:09;;;;;;;2.63;2.30;;;20.40;54.80;;;;;;4912847;28;88139;-85
2022/05/04 03:28:35;;;;;;;3.75;3.00;;;20.40;54.90;;;;;;4911507;28;87815;-84
2022/05/04 03:31:01;;;;;;;2.75;2.45;;;20.40;54.80;;;;;;4912800;28;86989;-81
2022/05/04 03:33:26;;;;;;;4.97;2.45;;;20.40;54.90;;;;;;4913258;28;86976;-86
2022/05/04 03:35:54;;;;;;;2.65;2.42;;;20.40;54.80;;;;;;4912373;28;88998;-85
2022/05/04 03:38:22;;;;;;;2.70;2.50;;;20.40;54.80;;;;;;4911766;28;88456;-83
2022/05/04 03:40:49;;;;;;;3.13;2.83;;;20.40;54.70;;;;;;4911877;28;88555;-84
2022/05/04 03:43:15;;;;;;;2.92;2.58;;;20.40;54.70;;;;;;4913659;28;87364;-84
2022/05/04 03:45:41;;;;;;;3.38;2.35;;;20.30;54.80;;;;;;4912237;28;87691;-84
2022/05/04 03:48:06;;;;;;;2.92;2.45;;;20.40;54.70;;;;;;4926592;28;89748;-81
2022/05/04 03:50:32;;;;;;;2.60;2.40;;;20.40;54.60;;;;;;4912117;28;87084;-83
2022/05/04 03:52:58;;;;;;;3.13;2.50;;;20.30;54.70;;;;;;4912604;28;87950;-86
2022/05/04 03:55:23;;;;;;;3.83;2.78;;;20.40;54.80;;;;;;4911485;28;90662;-82
2022/05/04 03:57:50;;;;;;;3.17;2.63;;;20.30;54.70;;;;;;4912034;28;87474;-84
2022/05/04 04:00:16;;;;;;;3.15;2.50;;;20.30;54.70;;;;;;4912061;28;88246;-80
2022/05/04 04:02:42;;;;;;;3.03;2.30;;;20.30;54.80;;;;;;4912233;28;87803;-84
2022/05/04 04:05:09;;;;;;;3.05;2.40;;;20.30;54.80;;;;;;4911916;28;88578;-78
2022/05/04 04:07:35;;;;;;;2.50;2.30;;;20.30;54.80;;;;;;4912298;28;88181;-81
2022/05/04 04:10:01;;;;;;;3.15;2.35;;;20.30;54.80;;;;;;4913181;28;86996;-86
2022/05/04 04:12:26;;;;;;;3.15;2.70;;;20.30;54.80;;;;;;4912718;28;87530;-84
2022/05/04 04:14:52;;;;;;;3.53;2.70;;;20.30;54.80;;;;;;4912563;28;87654;-81
2022/05/04 04:17:17;;;;;;;4.55;2.53;;;20.30;54.60;;;;;;4925970;28;90015;-81
2022/05/04 04:22:31;;;;;;;4.47;2.72;;;20.30;54.70;;;;;;4872209;28;88190;-83
2022/05/04 04:24:56;;;;;;;2.72;2.50;;;20.30;54.80;;;;;;4912186;28;87477;-78
2022/05/04 04:27:22;;;;;;;3.65;2.80;;;20.30;54.90;;;;;;4912674;28;87685;-86
2022/05/04 04:29:48;;;;;;;3.45;2.45;;;20.30;54.70;;;;;;4912209;28;88571;-85
2022/05/04 04:32:14;;;;;;;3.35;2.58;;;20.30;54.80;;;;;;4913671;28;87909;-81
2022/05/04 04:34:40;;;;;;;3.55;2.45;;;20.30;54.80;;;;;;4913979;28;88422;-85
2022/05/04 04:37:05;;;;;;;2.72;2.45;;;20.30;54.80;;;;;;4915006;28;87902;-85
2022/05/04 04:39:31;;;;;;;3.22;2.30;;;20.30;54.70;;;;;;4914269;28;87828;-85
2022/05/04 04:41:56;;;;;;;3.30;2.33;;;20.30;54.70;;;;;;4914149;28;87820;-81
2022/05/04 04:44:22;;;;;;;2.55;2.00;;;20.30;54.60;;;;;;4915155;28;87683;-85
2022/05/04 04:46:48;;;;;;;2.63;2.25;;;20.30;54.50;;;;;;4915836;28;88245;-83
2022/05/04 04:49:14;;;;;;;2.50;2.28;;;20.30;54.70;;;;;;4914942;28;87324;-85
2022/05/04 04:51:39;;;;;;;2.58;2.30;;;20.30;54.60;;;;;;4914828;28;87685;-85
2022/05/04 04:54:05;;;;;;;3.40;2.33;;;20.30;55.30;;;;;;4914508;28;88713;-79
2022/05/04 04:56:41;;;;;;;2.38;2.17;;;20.30;55.10;;;;;;4915269;28;88870;-83
2022/05/04 04:59:06;;;;;;;2.25;2.00;;;20.30;55.20;;;;;;4915037;28;86937;-80
2022/05/04 05:01:32;;;;;;;3.03;2.63;;;20.30;55.10;;;;;;4912837;28;89556;-83
2022/05/04 05:03:57;;;;;;;2.83;2.40;;;20.30;55.80;;;;;;4914440;28;88157;-81
2022/05/04 05:06:24;;;;;;;2.80;2.30;;;20.30;55.00;;;;;;4914570;28;88630;-84
2022/05/04 05:08:50;;;;;;;3.20;2.50;;;20.30;55.10;;;;;;4914503;28;86958;-83
2022/05/04 05:11:16;;;;;;;3.25;2.45;;;20.30;55.10;;;;;;4914704;28;87087;-82
2022/05/04 05:16:26;;;;;;;3.17;2.75;;;20.30;55.20;;;;;;4914278;28;87532;-83
2022/05/04 05:18:51;;;;;;;2.80;2.10;;;20.30;55.10;;;;;;4914187;28;87812;-79
2022/05/04 05:21:18;;;;;;;2.17;1.98;;;20.20;55.10;;;;;;4914053;28;87325;-81
2022/05/04 05:23:43;;;;;;;3.50;2.53;;;20.30;55.00;;;;;;4914814;28;87897;-79
2022/05/04 05:26:09;;;;;;;3.15;2.25;;;20.20;55.10;;;;;;4915185;28;87543;-80
2022/05/04 05:28:42;;;;;;;2.60;2.30;;;20.30;55.50;;;;;;4914458;28;87368;-82
2022/05/04 05:31:08;;;;;;;2.65;2.45;;;20.30;55.30;;;;;;4914702;28;87438;-79
2022/05/04 05:33:34;;;;;;;2.58;2.10;;;20.30;55.20;;;;;;4912751;28;90035;-84
2022/05/04 05:36:00;;;;;;;2.58;2.38;;;20.20;55.20;;;;;;4914149;28;88462;-84
2022/05/04 05:38:28;;;;;;;2.45;2.20;;;20.30;55.20;;;;;;4914647;28;86974;-85
2022/05/04 05:40:54;;;;;;;2.78;2.20;;;20.20;55.20;;;;;;4912923;28;89709;-83
2022/05/04 05:43:20;;;;;;;2.45;2.25;;;20.30;55.30;;;;;;4912241;28;88959;-81
2022/05/04 05:45:45;;;;;;;2.63;2.25;;;20.30;55.20;;;;;;4928316;28;88895;-82
2022/05/04 05:48:11;;;;;;;2.85;2.35;;;20.20;55.00;;;;;;4914539;28;87619;-84
2022/05/04 05:50:37;;;;;;;2.53;2.25;;;20.30;55.20;;;;;;4914164;28;88277;-82
2022/05/04 05:53:03;;;;;;;3.83;2.67;;;20.30;55.20;;;;;;4911301;28;90566;-84
2022/05/04 05:55:30;;;;;;;2.47;2.28;;;20.20;55.20;;;;;;4912633;28;87653;-83
2022/05/04 05:57:55;;;;;;;2.45;2.22;;;20.30;55.20;;;;;;4914897;28;87948;-85
2022/05/04 06:00:21;;;;;;;2.67;2.25;;;20.30;55.30;;;;;;4914932;28;86686;-80
2022/05/04 06:02:47;;;;;;;2.88;2.55;;;20.30;55.20;;;;;;4914165;28;87856;-82
2022/05/04 06:05:13;;;;;;;2.30;2.10;;;20.30;55.20;;;;;;4914165;28;87397;-83
2022/05/04 06:07:39;;;;;;;2.80;2.42;;;20.30;55.20;;;;;;4914462;28;88197;-84
2022/05/04 06:10:05;;;;;;;3.08;2.63;;;20.30;55.20;;;;;;4914383;28;88195;-85
2022/05/04 06:12:38;;;;;;;4.85;2.50;;;20.30;55.00;;;;;;4918103;28;88050;-87
2022/05/04 06:15:06;;;;;;;2.65;2.45;;;20.40;54.90;;;;;;4914512;28;87330;-80
2022/05/04 06:17:32;;;;;;;2.53;2.33;;;20.30;54.60;;;;;;4913656;28;87609;-84
2022/05/04 06:19:58;;;;;;;7.25;2.85;;;20.40;54.90;;;;;;4911743;28;86915;-82
2022/05/04 06:22:23;;;;;;;5.07;2.47;;;20.40;54.90;;;;;;4913643;28;88151;-83
2022/05/04 06:24:49;;;;;;;4.50;2.80;;;20.40;56.70;;;;;;4915235;28;87349;-84
2022/05/04 06:27:14;;;;;;;6.97;2.90;;;20.50;55.70;;;;;;4914832;28;87031;-82
2022/05/04 06:35:28;;;;;;;6.75;3.00;;;20.50;55.50;;;;;;4875180;28;88499;-82
2022/05/04 06:37:54;;;;;;;17.88;3.53;;;20.50;56.00;;;;;;4873255;28;88183;-83
2022/05/04 06:40:20;;;;;;;7.55;2.80;;;20.50;56.10;;;;;;4890861;28;87439;-82
2022/05/04 06:42:46;;;;;;;5.68;2.63;;;20.50;56.10;;;;;;4912868;28;87949;-82
2022/05/04 06:45:12;;;;;;;6.18;2.97;;;20.50;56.40;;;;;;4926174;28;88562;-83
2022/05/04 06:47:38;;;;;;;12.98;3.05;;;20.50;56.50;;;;;;4912726;28;88141;-84
2022/05/04 06:50:04;;;;;;;8.93;2.80;;;20.50;56.40;;;;;;4905680;28;86970;-85
2022/05/04 06:52:34;;;;;;;10.73;3.13;;;20.60;56.30;;;;;;4926391;28;90976;-80
2022/05/04 06:55:00;;;;;;;6.00;3.15;;;20.60;56.40;;;;;;4911326;28;87590;-83
2022/05/04 06:57:26;;;;;;;7.10;2.28;;;20.60;56.50;;;;;;4909738;28;88055;-79
2022/05/04 06:59:52;;;;;;;7.28;3.20;;;20.60;56.60;;;;;;4912343;28;87562;-85
2022/05/04 07:02:26;;;;;;;6.57;2.90;;;20.60;56.70;;;;;;4845307;28;88000;-84
2022/05/04 07:04:52;;;;;;;6.40;3.10;;;20.60;56.70;;;;;;4898229;28;88351;-90
2022/05/04 07:07:18;;;;;;;5.07;3.10;;;20.60;56.80;;;;;;4898487;28;88112;-86
2022/05/04 07:09:43;;;;;;;5.63;2.75;;;20.60;56.90;;;;;;4897675;28;86961;-90
2022/05/04 07:12:09;;;;;;;6.18;2.70;;;20.60;57.10;;;;;;4896918;28;90461;-87
2022/05/04 07:14:35;;;;;;;4.72;2.83;;;20.60;57.10;;;;;;4898849;28;87186;-89
2022/05/04 07:17:01;;;;;;;10.05;3.17;;;20.60;57.20;;;;;;4897845;28;87274;-87
2022/05/04 07:19:26;;;;;;;6.97;2.60;;;20.60;57.20;;;;;;4909960;28;90372;-92
2022/05/04 07:21:53;;;;;;;3.70;2.70;;;20.60;57.20;;;;;;4896072;28;88832;-89
2022/05/04 07:24:18;;;;;;;5.35;2.65;;;20.60;57.10;;;;;;4897559;28;88915;-87
2022/05/04 07:26:44;;;;;;;10.07;2.95;;;20.60;57.20;;;;;;4911990;28;87589;-90
2022/05/04 07:29:10;;;;;;;3.80;2.50;;;20.60;57.10;;;;;;4895150;28;88747;-90
2022/05/04 07:31:38;;;;;;;9.10;3.40;;;20.60;57.20;;;;;;4896015;28;89967;-93
2022/05/04 07:34:04;;;;;;;6.72;3.35;;;20.60;57.20;;;;;;4897899;28;87575;-92
2022/05/04 07:36:30;;;;;;;14.98;4.55;;;20.60;57.20;;;;;;4897781;28;87021;-91
2022/05/04 07:38:56;;;;;;;24.92;5.65;;;20.60;56.90;;;;;;4899942;28;86959;-89
2022/05/04 07:44:06;;;;;;;32.15;8.63;;;20.60;51.90;;;;;;4898486;28;87982;-89
2022/05/04 07:46:33;;;;;;;36.85;9.82;;;20.60;50.70;;;;;;4897699;28;89105;-87
2022/05/04 07:48:59;;;;;;;25.08;7.93;;;20.50;50.70;;;;;;4897343;28;87982;-88
2022/05/04 07:51:24;;;;;;;27.25;7.80;;;20.50;53.60;;;;;;4897581;28;88119;-85
2022/05/04 07:53:50;;;;;;;27.55;8.60;;;20.50;52.00;;;;;;4897680;28;87902;-90
2022/05/04 07:56:16;;;;;;;24.20;7.72;;;20.50;52.40;;;;;;4897197;28;86845;-86
2022/05/04 07:58:41;;;;;;;20.95;6.40;;;20.50;51.50;;;;;;4897767;28;87152;-93
2022/05/04 08:06:55;;;;;;;21.70;6.95;;;20.60;49.50;;;;;;4900247;28;87034;-90
2022/05/04 08:09:21;;;;;;;20.55;6.95;;;20.50;49.30;;;;;;4890681;28;87721;-87
2022/05/04 08:11:47;;;;;;;22.10;6.97;;;20.50;49.20;;;;;;4901180;28;89374;-89
2022/05/04 08:14:12;;;;;;;15.27;5.28;;;20.60;48.50;;;;;;4899791;28;88312;-87
2022/05/04 08:16:39;;;;;;;19.85;6.43;;;20.50;48.70;;;;;;4900998;28;87917;-89
2022/05/04 08:19:06;;;;;;;19.17;6.60;;;20.50;48.60;;;;;;4898800;28;87763;-85
2022/05/04 08:21:32;;;;;;;19.40;6.28;;;20.50;48.90;;;;;;4899772;28;87731;-92
2022/05/04 08:23:59;;;;;;;13.85;5.97;;;20.50;48.70;;;;;;4901512;28;88064;-93
2022/05/04 08:26:25;;;;;;;12.50;5.60;;;20.50;49.00;;;;;;4915792;28;86865;-86
2022/05/04 08:28:53;;;;;;;15.05;5.15;;;20.50;48.70;;;;;;4902118;28;87349;-89
2022/05/04 08:31:22;;;;;;;15.68;5.38;;;20.50;48.60;;;;;;4899186;28;87992;-89
2022/05/04 08:33:49;;;;;;;17.97;4.90;;;20.50;48.50;;;;;;4898128;28;87864;-90
2022/05/04 08:36:15;;;;;;;12.27;4.57;;;20.50;48.70;;;;;;4898284;28;88242;-93
2022/05/04 08:38:41;;;;;;;20.60;5.18;;;20.50;49.40;;;;;;4900144;28;86879;-89
2022/05/04 08:41:07;;;;;;;13.13;4.45;;;20.50;50.80;;;;;;4900609;28;87885;-87
2022/05/04 08:43:33;;;;;;;14.48;5.32;;;20.60;51.50;;;;;;4898371;28;90618;-85
2022/05/04 08:46:03;;;;;;;13.00;5.00;;;20.60;52.50;;;;;;4900079;28;87492;-87
2022/05/04 08:48:31;;;;;;;15.48;7.30;;;20.60;52.90;;;;;;4901263;28;87857;-91
2022/05/04 08:51:01;;;;;;;21.08;6.60;;;20.60;52.60;;;;;;4899331;28;87826;-86
2022/05/04 08:53:27;;;;;;;15.45;5.00;;;20.60;52.30;;;;;;4900133;28;87956;-90
2022/05/04 08:55:54;;;;;;;14.52;6.25;;;20.60;52.70;;;;;;4900433;28;87289;-92
2022/05/04 08:58:20;;;;;;;10.70;5.93;;;20.60;52.60;;;;;;4898006;28;89881;-86
2022/05/04 09:00:45;;;;;;;11.73;5.38;;;20.60;52.10;;;;;;4913813;28;90362;-88
2022/05/04 09:03:11;;;;;;;14.77;6.22;;;20.60;52.20;;;;;;4914223;28;91855;-94
2022/05/04 09:05:47;;;;;;;15.65;5.82;;;20.60;51.60;;;;;;4899740;28;87092;-89
2022/05/04 09:08:13;;;;;;;11.32;6.57;;;20.60;51.70;;;;;;4896552;28;89394;-86
2022/05/04 09:10:43;;;;;;;15.32;6.60;;;20.50;51.10;;;;;;4897796;28;88366;-91
2022/05/04 09:13:10;;;;;;;15.50;6.07;;;20.60;51.60;;;;;;4900221;28;88588;-86
2022/05/04 09:15:40;;;;;;;20.02;6.20;;;20.60;52.60;;;;;;4898211;28;87577;-91
2022/05/04 09:18:06;;;;;;;;;;;20.60;52.30;;;;;;4898963;28;86182;-85
2022/05/04 09:20:49;;;;;;;20.95;6.35;;;20.70;54.10;;;;;;4901353;28;87128;-85
2022/05/04 09:23:28;;;;;;;14.95;5.45;;;20.70;53.00;;;;;;4900337;28;87471;-89
2022/05/04 09:25:55;;;;;;;18.13;5.23;;;20.70;51.50;;;;;;4898402;28;88219;-85
2022/05/04 09:28:26;;;;;;;15.52;5.55;;;20.60;51.50;;;;;;4900079;28;87813;-91
2022/05/04 09:30:56;;;;;;;17.98;5.78;;;20.70;51.50;;;;;;4899837;28;88346;-90
2022/05/04 09:33:23;;;;;;;13.23;5.25;;;20.60;51.30;;;;;;4899263;28;90553;-91
2022/05/04 09:35:50;;;;;;;14.82;5.82;;;20.60;51.70;;;;;;4900486;28;87192;-89
2022/05/04 09:46:52;;;;;;;20.45;5.75;;;20.70;52.30;;;;;;4902167;28;87584;-92
2022/05/04 09:49:46;;;;;;;20.60;6.13;;;20.70;52.50;;;;;;4900209;28;87251;-89
2022/05/04 09:52:14;;;;;;;12.77;4.82;;;20.70;52.70;;;;;;4900168;28;89424;-88
2022/05/04 09:54:40;;;;;;;17.52;5.82;;;20.70;53.10;;;;;;4900595;28;88371;-92
2022/05/04 09:57:06;;;;;;;11.02;4.85;;;20.70;53.10;;;;;;4901673;28;87106;-90
2022/05/04 09:59:33;;;;;;;11.23;4.63;;;20.70;52.80;;;;;;4900562;28;86910;-89
2022/05/04 10:02:03;;;;;;;15.95;4.93;;;20.70;52.70;;;;;;4898419;28;89617;-85
2022/05/04 10:04:32;;;;;;;16.90;5.30;;;20.70;52.70;;;;;;4900473;28;87428;-89
2022/05/04 10:06:58;;;;;;;8.60;4.93;;;20.70;52.60;;;;;;4899281;28;87466;-89
2022/05/04 10:09:23;;;;;;;16.02;4.95;;;20.70;52.60;;;;;;4900352;28;87445;-88
2022/05/04 10:14:46;;;;;;;14.25;4.97;;;20.70;52.70;;;;;;4901117;28;88921;-88
2022/05/04 10:17:24;;;;;;;15.02;4.57;;;20.70;52.80;;;;;;4900087;28;88987;-89
2022/05/04 10:20:11;;;;;;;12.80;4.63;;;20.70;52.60;;;;;;4900853;28;87814;-88
2022/05/04 10:22:48;;;;;;;12.05;4.85;;;20.70;52.60;;;;;;4901179;28;87475;-86
2022/05/04 10:25:15;;;;;;;11.38;4.95;;;20.70;52.60;;;;;;4900863;28;87876;-90
2022/05/04 10:27:42;;;;;;;16.40;4.53;;;20.70;52.30;;;;;;4898649;28;87825;-89
2022/05/04 10:33:05;;;;;;;10.20;4.60;;;20.70;51.60;;;;;;4897100;28;88010;-88
2022/05/04 10:35:49;;;;;;;13.27;5.00;;;20.70;51.60;;;;;;4899572;28;87769;-87
2022/05/04 10:38:38;;;;;;;15.18;5.57;;;20.70;51.90;;;;;;4898484;28;87009;-92
2022/05/04 10:41:07;;;;;;;11.60;4.78;;;20.70;51.20;;;;;;4898513;28;88114;-89
2022/05/04 10:43:36;;;;;;;17.35;5.50;;;20.70;51.40;;;;;;4897830;28;88835;-90
2022/05/04 10:46:10;;;;;;;11.25;5.50;;;20.70;51.70;;;;;;4898324;28;88683;-92
2022/05/04 10:48:36;;;;;;;11.15;5.85;;;20.70;51.30;;;;;;4900466;28;87675;-89
2022/05/04 10:51:19;;;;;;;14.95;5.72;;;20.60;50.30;;;;;;4897469;28;87858;-88
2022/05/04 10:53:50;;;;;;;14.57;5.00;;;20.60;49.60;;;;;;4897085;28;87334;-89
2022/05/04 10:56:20;;;;;;;12.88;4.88;;;20.60;50.20;;;;;;4898114;28;87456;-89
2022/05/04 10:58:50;;;;;;;14.82;5.32;;;20.60;50.90;;;;;;4898010;28;87727;-94
2022/05/04 11:01:26;;;;;;;13.55;4.90;;;20.70;51.00;;;;;;4898753;28;87136;-91
2022/05/04 11:04:08;;;;;;;16.33;4.68;;;20.70;50.60;;;;;;4897748;28;87541;-88
2022/05/04 11:06:43;;;;;;;11.77;4.40;;;20.70;50.50;;;;;;4896530;28;86982;-92
2022/05/04 11:09:13;;;;;;;11.93;4.28;;;20.70;50.60;;;;;;4897861;28;88752;-88
2022/05/04 11:11:41;;;;;;;17.35;4.80;;;20.70;50.50;;;;;;4897927;28;87919;-90
2022/05/04 11:14:09;;;;;;;11.18;4.95;;;20.70;50.30;;;;;;4899281;28;87099;-90
2022/05/04 11:16:35;;;;;;;9.85;4.53;;;20.70;51.00;;;;;;4897185;28;87538;-90
2022/05/04 11:19:03;;;;;;;11.80;5.20;;;20.70;51.10;;;;;;4899443;28;87143;-89
2022/05/04 11:21:30;;;;;;;15.77;6.45;;;20.70;50.20;;;;;;4896432;28;87076;-83
2022/05/04 11:23:58;;;;;;;22.75;4.63;;;20.70;49.90;;;;;;4897131;28;88011;-91
2022/05/04 11:26:35;;;;;;;10.75;4.40;;;20.70;50.60;;;;;;4895974;28;89080;-85
2022/05/04 11:29:01;;;;;;;18.83;5.90;;;20.70;51.70;;;;;;4910400;28;87602;-84
2022/05/04 11:31:34;;;;;;;17.52;5.68;;;20.70;51.20;;;;;;4896150;28;87551;-85
2022/05/04 11:34:01;;;;;;;18.15;6.85;;;20.70;50.50;;;;;;4898689;28;89087;-91
2022/05/04 11:36:28;;;;;;;21.83;5.97;;;20.70;50.40;;;;;;4898392;28;88346;-94
2022/05/04 11:38:54;;;;;;;16.10;5.82;;;20.70;50.40;;;;;;4913320;28;87577;-92
2022/05/04 11:41:20;;;;;;;22.05;6.05;;;20.70;50.50;;;;;;4897165;28;87203;-86
2022/05/04 11:43:49;;;;;;;21.20;6.07;;;20.70;50.40;;;;;;4880336;28;90632;-87
2022/05/04 11:46:16;;;;;;;19.57;6.00;;;20.70;50.60;;;;;;4896815;28;87270;-86
2022/05/04 11:48:44;;;;;;;18.35;5.68;;;20.70;50.60;;;;;;4898652;28;87513;-93
2022/05/04 11:51:12;;;;;;;16.53;5.20;;;20.70;50.70;;;;;;4900098;28;86744;-91
2022/05/04 11:53:38;;;;;;;17.20;4.95;;;20.70;50.70;;;;;;4899406;28;87954;-91
2022/05/04 11:56:06;;;;;;;14.90;4.90;;;20.70;50.80;;;;;;4902133;28;87407;-92
2022/05/04 11:58:33;;;;;;;22.92;6.13;;;20.70;50.80;;;;;;4896959;28;87910;-81
2022/05/04 12:01:10;;;;;;;;;;;;;;;;;;;;;
2022/05/04 12:03:38;;;;;;;18.00;4.78;;;20.70;51.00;;;;;;4895547;28;90571;-83
2022/05/04 12:06:11;;;;;;;13.85;5.53;;;20.70;51.10;;;;;;4894485;28;87323;-82
2022/05/04 12:08:38;;;;;;;12.13;4.97;;;20.70;51.00;;;;;;4894611;28;87331;-87
2022/05/04 12:11:06;;;;;;;16.40;5.40;;;20.70;51.10;;;;;;4892907;28;87663;-84
2022/05/04 12:13:34;;;;;;;13.45;4.90;;;20.70;51.30;;;;;;4892307;28;87654;-81
2022/05/04 12:16:00;;;;;;;17.05;5.15;;;20.70;51.30;;;;;;4893318;28;87323;-81
2022/05/04 12:18:31;;;;;;;13.63;4.90;;;20.70;51.40;;;;;;4893780;28;87165;-82
2022/05/04 12:21:04;;;;;;;13.63;4.80;;;20.70;51.50;;;;;;4893458;28;87510;-84
2022/05/04 12:23:29;;;;;;;16.13;4.95;;;20.70;51.30;;;;;;4892008;28;88799;-81
2022/05/04 12:25:57;;;;;;;15.27;4.43;;;20.70;51.60;;;;;;4907184;28;91024;-83
2022/05/04 12:28:26;;;;;;;21.40;5.60;;;20.70;51.60;;;;;;4894108;28;87544;-81
2022/05/04 12:33:37;;;;;;;14.98;5.28;;;20.70;51.70;;;;;;4893567;28;87636;-81
2022/05/04 12:36:05;;;;;;;11.18;4.68;;;20.70;51.80;;;;;;4894949;28;87857;-81
2022/05/04 12:38:33;;;;;;;12.18;4.50;;;20.70;51.70;;;;;;4892507;28;87908;-84
2022/05/04 12:41:01;;;;;;;15.30;5.38;;;20.70;52.00;;;;;;4892959;28;86858;-81
2022/05/04 12:43:30;;;;;;;16.25;5.15;;;20.70;51.90;;;;;;4892789;28;88215;-80
2022/05/04 12:45:56;;;;;;;17.58;5.57;;;20.70;51.80;;;;;;4893642;28;87873;-82
2022/05/04 12:48:25;;;;;;;16.75;5.40;;;20.70;52.00;;;;;;4892876;28;88713;-82
2022/05/04 12:51:00;;;;;;;9.75;4.72;;;20.70;51.90;;;;;;4891396;28;89050;-84
2022/05/04 12:53:27;;;;;;;11.07;4.50;;;20.70;52.20;;;;;;4894003;28;90993;-80
2022/05/04 12:56:53;;;;;;;10.68;4.00;;;20.70;52.20;;;;;;4896559;28;87553;-83
2022/05/04 12:58:47;;;;;;;13.07;4.68;;;20.70;52.10;;;;;;4898210;28;87922;-86
2022/05/04 13:01:13;;;;;;;10.82;4.20;;;20.70;52.30;;;;;;4896239;28;87468;-83
2022/05/04 13:03:39;;;;;;;12.70;4.10;;;20.70;52.20;;;;;;4896371;28;87581;-82
2022/05/04 13:06:05;;;;;;;12.55;4.85;;;20.70;52.20;;;;;;4896658;28;87648;-83
2022/05/04 13:08:30;;;;;;;10.30;4.38;;;20.70;52.30;;;;;;4896954;28;87766;-83
2022/05/04 13:11:05;;;;;;;13.45;4.35;;;20.70;52.30;;;;;;4896146;28;89133;-84
2022/05/04 13:13:30;;;;;;;15.82;4.80;;;20.70;52.20;;;;;;4894814;28;89503;-83
2022/05/04 13:15:56;;;;;;;13.38;5.25;;;20.70;52.10;;;;;;4897235;28;87344;-83
2022/05/04 13:18:22;;;;;;;8.70;4.30;;;20.70;52.30;;;;;;4898006;28;87499;-86
2022/05/04 13:20:49;;;;;;;14.68;4.15;;;20.70;52.30;;;;;;4902465;28;86817;-91
2022/05/04 13:23:15;;;;;;;12.73;4.43;;;20.70;52.40;;;;;;4901254;28;87075;-87
2022/05/04 13:25:40;;;;;;;13.20;5.13;;;20.70;52.50;;;;;;4901452;28;91419;-89
2022/05/04 13:28:06;;;;;;;8.88;4.00;;;20.70;52.40;;;;;;4902933;28;86899;-92
2022/05/04 13:30:32;;;;;;;12.40;5.00;;;20.70;52.50;;;;;;4902606;28;86650;-93
2022/05/04 13:32:58;;;;;;;9.38;4.28;;;20.70;52.60;;;;;;4902104;28;87890;-89